createdAt,value
2023-03-06T00:00:10.500Z,0.00
2023-03-06T00:01:10.503Z,0.00
2023-03-06T00:02:10.510Z,0.00
2023-03-06T00:03:10.487Z,0.00
2023-03-06T00:04:10.581Z,0.00
2023-03-06T00:05:10.592Z,0.00
2023-03-06T00:06:10.459Z,0.00
2023-03-06T00:07:10.448Z,0.00
2023-03-06T00:08:10.417Z,0.00
2023-03-06T00:09:10.433Z,0.00
2023-03-06T00:10:11.092Z,0.00
2023-03-06T00:11:10.451Z,0.00
2023-03-06T00:12:10.334Z,0.00
2023-03-06T00:13:10.355Z,0.00
2023-03-06T00:14:10.355Z,0.00
2023-03-06T00:15:10.324Z,0.00
2023-03-06T00:16:10.336Z,0.00
2023-03-06T00:17:10.361Z,0.00
2023-03-06T00:18:10.256Z,0.00
2023-03-06T00:19:10.295Z,0.00
2023-03-06T00:20:10.250Z,0.00
2023-03-06T00:21:10.253Z,0.00
2023-03-06T00:22:10.230Z,0.00
2023-03-06T00:23:10.254Z,0.00
2023-03-06T00:24:10.205Z,0.00
2023-03-06T00:25:10.225Z,0.00
2023-03-06T00:26:10.147Z,0.00
2023-03-06T00:27:10.200Z,0.00
2023-03-06T00:28:10.165Z,0.00
2023-03-06T00:29:10.196Z,0.00
2023-03-06T00:30:10.109Z,0.00
2023-03-06T00:31:10.174Z,0.00
2023-03-06T00:32:10.122Z,0.00
2023-03-06T00:33:10.077Z,0.00
2023-03-06T00:34:10.075Z,0.00
2023-03-06T00:35:10.096Z,0.00
2023-03-06T00:36:10.047Z,0.00
2023-03-06T00:37:10.061Z,0.00
2023-03-06T00:38:09.990Z,0.00
2023-03-06T00:39:10.029Z,0.00
2023-03-06T00:40:09.974Z,0.00
2023-03-06T00:41:10.017Z,0.00
2023-03-06T00:42:09.975Z,0.00
2023-03-06T00:43:09.986Z,0.00
2023-03-06T00:44:09.914Z,0.00
2023-03-06T00:45:09.930Z,0.00
2023-03-06T00:46:09.989Z,0.00
2023-03-06T00:47:10.030Z,0.00
2023-03-06T00:48:09.877Z,0.00
2023-03-06T00:49:09.908Z,0.00
2023-03-06T00:50:09.842Z,0.00
2023-03-06T00:51:12.809Z,0.00
2023-03-06T00:52:09.804Z,0.00
2023-03-06T00:53:09.871Z,0.00
2023-03-06T00:54:09.808Z,0.00
2023-03-06T00:55:09.793Z,0.00
2023-03-06T00:56:09.795Z,0.00
2023-03-06T00:57:09.831Z,0.00
2023-03-06T00:58:09.735Z,0.00
2023-03-06T00:59:09.913Z,0.00
2023-03-06T01:00:09.713Z,0.00
2023-03-06T01:01:09.772Z,0.00
2023-03-06T01:02:09.787Z,0.00
2023-03-06T01:03:09.686Z,0.00
2023-03-06T01:04:09.678Z,0.00
2023-03-06T01:05:09.737Z,0.00
2023-03-06T01:06:09.625Z,0.00
2023-03-06T01:07:09.678Z,0.00
2023-03-06T01:08:09.598Z,0.00
2023-03-06T01:09:09.612Z,0.00
2023-03-06T01:10:09.624Z,0.00
2023-03-06T01:11:09.603Z,0.00
2023-03-06T01:12:09.586Z,0.00
2023-03-06T01:13:09.609Z,0.00
2023-03-06T01:14:09.520Z,0.00
2023-03-06T01:15:09.551Z,0.00
2023-03-06T01:16:09.547Z,0.00
2023-03-06T01:17:09.600Z,0.00
2023-03-06T01:18:09.474Z,0.00
2023-03-06T01:19:09.600Z,0.00
2023-03-06T01:20:09.433Z,0.00
2023-03-06T01:21:09.453Z,0.00
2023-03-06T01:22:09.458Z,0.00
2023-03-06T01:23:09.465Z,0.00
2023-03-06T01:24:09.425Z,0.00
2023-03-06T01:25:09.431Z,0.00
2023-03-06T01:26:09.364Z,0.00
2023-03-06T01:27:09.400Z,0.00
2023-03-06T01:28:09.334Z,0.00
2023-03-06T01:29:09.380Z,0.00
2023-03-06T01:30:09.329Z,0.00
2023-03-06T01:31:09.348Z,0.00
2023-03-06T01:32:09.342Z,0.00
2023-03-06T01:33:09.288Z,0.00
2023-03-06T01:34:09.276Z,0.00
2023-03-06T01:35:09.389Z,0.00
2023-03-06T01:36:09.262Z,0.00
2023-03-06T01:37:09.276Z,0.00
2023-03-06T01:38:09.208Z,0.00
2023-03-06T01:39:09.265Z,0.00
2023-03-06T01:40:09.177Z,0.00
2023-03-06T01:41:09.260Z,0.00
2023-03-06T01:42:09.188Z,0.00
2023-03-06T01:43:09.175Z,0.00
2023-03-06T01:44:09.160Z,0.00
2023-03-06T01:45:09.170Z,0.00
2023-03-06T01:46:09.170Z,0.00
2023-03-06T01:47:09.151Z,0.00
2023-03-06T01:48:09.120Z,0.00
2023-03-06T01:49:09.121Z,0.00
2023-03-06T01:50:09.077Z,0.00
2023-03-06T01:51:09.094Z,0.00
2023-03-06T01:52:09.044Z,0.00
2023-03-06T01:53:09.081Z,0.00
2023-03-06T01:54:09.036Z,0.00
2023-03-06T01:55:09.054Z,0.00
2023-03-06T01:56:09.006Z,0.00
2023-03-06T01:57:09.012Z,0.00
2023-03-06T01:58:08.988Z,0.00
2023-03-06T01:59:09.116Z,0.00
2023-03-06T02:00:08.936Z,0.00
2023-03-06T02:01:08.975Z,0.00
2023-03-06T02:02:08.965Z,0.00
2023-03-06T02:03:08.918Z,0.00
2023-03-06T02:04:08.895Z,0.00
2023-03-06T02:05:08.951Z,0.00
2023-03-06T02:06:08.867Z,0.00
2023-03-06T02:07:08.928Z,0.00
2023-03-06T02:08:08.838Z,0.00
2023-03-06T02:09:08.845Z,0.00
2023-03-06T02:10:08.840Z,0.00
2023-03-06T02:11:09.029Z,0.00
2023-03-06T02:12:08.806Z,0.00
2023-03-06T02:13:08.820Z,0.00
2023-03-06T02:14:08.752Z,0.00
2023-03-06T02:15:08.781Z,0.00
2023-03-06T02:16:08.787Z,0.00
2023-03-06T02:17:08.769Z,0.00
2023-03-06T02:18:08.753Z,0.00
2023-03-06T02:19:08.738Z,0.00
2023-03-06T02:20:08.680Z,0.00
2023-03-06T02:21:08.687Z,0.00
2023-03-06T02:22:08.688Z,0.00
2023-03-06T02:23:08.714Z,0.00
2023-03-06T02:24:08.654Z,0.00
2023-03-06T02:25:08.702Z,0.00
2023-03-06T02:26:08.610Z,0.00
2023-03-06T02:27:08.626Z,0.00
2023-03-06T02:28:08.598Z,0.00
2023-03-06T02:29:08.707Z,0.00
2023-03-06T02:30:08.578Z,0.00
2023-03-06T02:31:08.606Z,0.00
2023-03-06T02:32:08.610Z,0.00
2023-03-06T02:33:08.585Z,0.00
2023-03-06T02:34:08.484Z,0.00
2023-03-06T02:35:08.542Z,0.00
2023-03-06T02:36:08.497Z,0.00
2023-03-06T02:37:08.506Z,0.00
2023-03-06T02:38:08.442Z,0.00
2023-03-06T02:39:08.486Z,0.00
2023-03-06T02:40:08.435Z,0.00
2023-03-06T02:41:08.492Z,0.00
2023-03-06T02:42:08.435Z,0.00
2023-03-06T02:43:08.401Z,0.00
2023-03-06T02:44:08.397Z,0.00
2023-03-06T02:45:08.427Z,0.00
2023-03-06T02:46:08.405Z,0.00
2023-03-06T02:47:08.412Z,0.00
2023-03-06T02:48:08.312Z,0.00
2023-03-06T02:49:08.338Z,0.00
2023-03-06T02:50:08.306Z,0.00
2023-03-06T02:51:08.355Z,0.00
2023-03-06T02:52:08.296Z,0.00
2023-03-06T02:53:08.390Z,0.00
2023-03-06T02:54:08.279Z,0.00
2023-03-06T02:55:08.250Z,0.00
2023-03-06T02:56:08.238Z,0.00
2023-03-06T02:57:08.258Z,0.00
2023-03-06T02:58:08.171Z,0.00
2023-03-06T02:59:08.235Z,0.00
2023-03-06T03:00:08.158Z,0.00
2023-03-06T03:01:08.233Z,0.00
2023-03-06T03:02:08.157Z,0.00
2023-03-06T03:03:08.144Z,0.00
2023-03-06T03:04:08.152Z,0.00
2023-03-06T03:05:08.181Z,0.00
2023-03-06T03:06:08.092Z,0.00
2023-03-06T03:07:08.072Z,0.00
2023-03-06T03:08:08.097Z,0.00
2023-03-06T03:09:08.077Z,0.00
2023-03-06T03:10:08.061Z,0.00
2023-03-06T03:11:08.094Z,0.00
2023-03-06T03:12:08.035Z,0.00
2023-03-06T03:13:07.989Z,0.00
2023-03-06T03:14:08.017Z,0.00
2023-03-06T03:15:07.984Z,0.00
2023-03-06T03:16:08.066Z,0.00
2023-03-06T03:17:07.987Z,0.00
2023-03-06T03:18:07.948Z,0.00
2023-03-06T03:19:07.932Z,0.00
2023-03-06T03:20:07.928Z,0.00
2023-03-06T03:21:07.929Z,0.00
2023-03-06T03:22:07.943Z,0.00
2023-03-06T03:23:07.930Z,0.00
2023-03-06T03:24:07.876Z,0.00
2023-03-06T03:25:07.837Z,0.00
2023-03-06T03:26:07.867Z,0.00
2023-03-06T03:27:07.796Z,0.00
2023-03-06T03:28:07.849Z,0.00
2023-03-06T03:29:07.897Z,0.00
2023-03-06T03:30:07.817Z,0.00
2023-03-06T03:31:07.865Z,0.00
2023-03-06T03:32:07.840Z,0.00
2023-03-06T03:33:07.730Z,0.00
2023-03-06T03:34:07.769Z,0.00
2023-03-06T03:35:07.830Z,0.00
2023-03-06T03:36:07.742Z,0.00
2023-03-06T03:37:07.703Z,0.00
2023-03-06T03:38:07.702Z,0.00
2023-03-06T03:39:07.682Z,0.00
2023-03-06T03:40:07.680Z,0.00
2023-03-06T03:41:07.730Z,0.00
2023-03-06T03:42:07.655Z,0.00
2023-03-06T03:43:07.667Z,0.00
2023-03-06T03:44:07.621Z,0.00
2023-03-06T03:45:07.597Z,0.00
2023-03-06T03:46:07.626Z,0.00
2023-03-06T03:47:07.672Z,0.00
2023-03-06T03:48:07.591Z,0.00
2023-03-06T03:49:07.553Z,0.00
2023-03-06T03:50:07.552Z,0.00
2023-03-06T03:51:07.533Z,0.00
2023-03-06T03:52:07.520Z,0.00
2023-03-06T03:53:07.515Z,0.00
2023-03-06T03:54:07.521Z,0.00
2023-03-06T03:55:07.473Z,0.00
2023-03-06T03:56:07.482Z,0.00
2023-03-06T03:57:07.410Z,0.00
2023-03-06T03:58:07.454Z,0.00
2023-03-06T03:59:07.425Z,0.00
2023-03-06T04:00:07.423Z,0.00
2023-03-06T04:01:07.383Z,0.00
2023-03-06T04:02:07.426Z,0.00
2023-03-06T04:03:07.356Z,0.00
2023-03-06T04:04:07.373Z,0.00
2023-03-06T04:05:07.450Z,0.00
2023-03-06T04:06:07.353Z,0.00
2023-03-06T04:07:07.281Z,0.00
2023-03-06T04:08:07.327Z,0.00
2023-03-06T04:09:07.274Z,0.00
2023-03-06T04:10:07.288Z,0.00
2023-03-06T04:11:07.308Z,0.00
2023-03-06T04:12:07.239Z,0.00
2023-03-06T04:13:09.903Z,0.00
2023-03-06T04:14:07.255Z,0.00
2023-03-06T04:15:07.175Z,0.00
2023-03-06T04:16:07.259Z,0.00
2023-03-06T04:17:07.232Z,0.00
2023-03-06T04:18:07.167Z,0.00
2023-03-06T04:19:07.156Z,0.00
2023-03-06T04:20:07.144Z,0.00
2023-03-06T04:21:07.228Z,0.00
2023-03-06T04:22:07.160Z,0.00
2023-03-06T04:23:07.100Z,0.00
2023-03-06T04:24:07.117Z,0.00
2023-03-06T04:25:07.086Z,0.00
2023-03-06T04:26:07.076Z,0.00
2023-03-06T04:27:07.041Z,0.00
2023-03-06T04:28:07.069Z,0.00
2023-03-06T04:29:07.068Z,0.00
2023-03-06T04:30:07.023Z,0.00
2023-03-06T04:31:07.028Z,0.00
2023-03-06T04:32:07.081Z,0.00
2023-03-06T04:33:06.959Z,0.00
2023-03-06T04:34:06.986Z,0.00
2023-03-06T04:35:07.036Z,0.00
2023-03-06T04:36:06.981Z,0.00
2023-03-06T04:37:06.940Z,0.00
2023-03-06T04:38:06.925Z,0.00
2023-03-06T04:39:06.944Z,0.00
2023-03-06T04:40:06.897Z,0.00
2023-03-06T04:41:06.956Z,0.00
2023-03-06T04:42:06.883Z,0.00
2023-03-06T04:43:06.849Z,0.00
2023-03-06T04:44:06.838Z,0.00
2023-03-06T04:45:07.766Z,0.00
2023-03-06T04:46:06.839Z,0.00
2023-03-06T04:47:06.818Z,0.00
2023-03-06T04:48:06.824Z,0.00
2023-03-06T04:49:06.787Z,0.00
2023-03-06T04:50:06.756Z,0.00
2023-03-06T04:51:06.747Z,0.00
2023-03-06T04:52:06.789Z,0.00
2023-03-06T04:53:06.818Z,0.00
2023-03-06T04:54:06.740Z,0.00
2023-03-06T04:55:06.662Z,0.00
2023-03-06T04:56:06.734Z,0.00
2023-03-06T04:57:06.669Z,0.00
2023-03-06T04:58:06.660Z,0.00
2023-03-06T04:59:06.646Z,0.00
2023-03-06T05:00:06.655Z,0.00
2023-03-06T05:01:06.640Z,0.00
2023-03-06T05:02:06.635Z,0.00
2023-03-06T05:03:06.586Z,0.00
2023-03-06T05:04:06.580Z,0.00
2023-03-06T05:05:06.552Z,0.00
2023-03-06T05:06:06.578Z,0.00
2023-03-06T05:07:06.520Z,0.00
2023-03-06T05:08:06.537Z,0.00
2023-03-06T05:09:06.514Z,0.00
2023-03-06T05:10:06.505Z,0.00
2023-03-06T05:11:06.599Z,0.00
2023-03-06T05:12:06.458Z,0.00
2023-03-06T05:13:06.443Z,0.00
2023-03-06T05:14:06.489Z,0.00
2023-03-06T05:15:06.420Z,0.00
2023-03-06T05:16:06.522Z,0.00
2023-03-06T05:17:06.470Z,0.00
2023-03-06T05:18:06.400Z,0.00
2023-03-06T05:19:06.393Z,0.00
2023-03-06T05:20:06.365Z,0.00
2023-03-06T05:21:06.356Z,0.00
2023-03-06T05:22:06.356Z,0.00
2023-03-06T05:23:06.427Z,0.00
2023-03-06T05:24:06.339Z,0.00
2023-03-06T05:25:06.290Z,0.00
2023-03-06T05:26:06.285Z,0.00
2023-03-06T05:27:06.275Z,0.00
2023-03-06T05:28:06.253Z,0.00
2023-03-06T05:29:06.261Z,0.00
2023-03-06T05:30:06.264Z,1.00
2023-03-06T05:31:06.240Z,1.00
2023-03-06T05:32:06.316Z,1.00
2023-03-06T05:33:06.162Z,1.00
2023-03-06T05:34:06.235Z,0.00
2023-03-06T05:35:06.194Z,2.00
2023-03-06T05:36:06.186Z,2.00
2023-03-06T05:37:06.167Z,2.00
2023-03-06T05:38:06.138Z,4.00
2023-03-06T05:39:06.127Z,0.00
2023-03-06T05:40:06.107Z,4.00
2023-03-06T05:41:06.193Z,4.00
2023-03-06T05:42:06.102Z,2.00
2023-03-06T05:43:06.042Z,6.00
2023-03-06T05:44:06.081Z,9.00
2023-03-06T05:45:06.083Z,7.00
2023-03-06T05:46:06.170Z,9.00
2023-03-06T05:47:06.033Z,11.00
2023-03-06T05:48:06.759Z,20.00
2023-03-06T05:49:06.008Z,22.00
2023-03-06T05:50:06.028Z,18.00
2023-03-06T05:51:05.974Z,25.00
2023-03-06T05:52:05.951Z,32.00
2023-03-06T05:53:05.960Z,34.00
2023-03-06T05:54:05.967Z,32.00
2023-03-06T05:55:05.887Z,34.00
2023-03-06T05:56:05.940Z,43.00
2023-03-06T05:57:05.896Z,47.00
2023-03-06T05:58:05.887Z,48.00
2023-03-06T05:59:05.969Z,50.00
2023-03-06T06:00:05.859Z,61.00
2023-03-06T06:01:05.837Z,68.00
2023-03-06T06:02:05.899Z,66.00
2023-03-06T06:03:05.865Z,72.00
2023-03-06T06:04:05.794Z,74.00
2023-03-06T06:05:05.907Z,79.00
2023-03-06T06:06:05.820Z,81.00
2023-03-06T06:07:05.734Z,79.00
2023-03-06T06:08:05.796Z,79.00
2023-03-06T06:09:05.753Z,81.00
2023-03-06T06:10:05.734Z,79.00
2023-03-06T06:11:05.825Z,68.00
2023-03-06T06:12:05.685Z,70.00
2023-03-06T06:13:05.661Z,75.00
2023-03-06T06:14:05.693Z,79.00
2023-03-06T06:15:05.629Z,69.00
2023-03-06T06:16:05.731Z,84.00
2023-03-06T06:17:05.688Z,87.00
2023-03-06T06:18:05.624Z,89.00
2023-03-06T06:19:05.653Z,90.00
2023-03-06T06:20:05.597Z,106.00
2023-03-06T06:21:05.543Z,122.00
2023-03-06T06:22:05.605Z,125.00
2023-03-06T06:23:05.581Z,121.00
2023-03-06T06:24:05.622Z,124.00
2023-03-06T06:25:05.537Z,154.00
2023-03-06T06:26:05.509Z,143.00
2023-03-06T06:27:05.497Z,137.00
2023-03-06T06:28:05.486Z,124.00
2023-03-06T06:29:05.503Z,114.00
2023-03-06T06:30:05.514Z,128.00
2023-03-06T06:31:05.489Z,135.00
2023-03-06T06:32:05.497Z,157.00
2023-03-06T06:33:05.472Z,160.00
2023-03-06T06:34:05.408Z,164.00
2023-03-06T06:35:05.482Z,138.00
2023-03-06T06:36:05.405Z,148.00
2023-03-06T06:37:05.431Z,164.00
2023-03-06T06:38:05.346Z,196.00
2023-03-06T06:39:05.352Z,199.00
2023-03-06T06:40:05.352Z,205.00
2023-03-06T06:41:35.720Z,230.00
2023-03-06T06:42:28.558Z,226.00
2023-03-06T06:43:06.276Z,236.00
2023-03-06T06:44:07.239Z,239.00
2023-03-06T06:45:05.286Z,242.00
2023-03-06T06:46:31.476Z,258.00
2023-03-06T06:47:24.215Z,263.00
2023-03-06T06:48:06.241Z,273.00
2023-03-06T06:49:05.238Z,273.00
2023-03-06T06:50:05.302Z,273.00
2023-03-06T06:51:05.194Z,308.00
2023-03-06T06:52:05.212Z,340.00
2023-03-06T06:53:05.167Z,337.00
2023-03-06T06:54:05.178Z,339.00
2023-03-06T06:55:05.114Z,328.00
2023-03-06T06:56:05.148Z,338.00
2023-03-06T06:57:05.143Z,371.00
2023-03-06T06:58:05.114Z,375.00
2023-03-06T06:59:16.068Z,390.00
2023-03-06T07:00:06.101Z,415.00
2023-03-06T07:01:05.031Z,424.00
2023-03-06T07:02:05.074Z,424.00
2023-03-06T07:03:04.998Z,437.00
2023-03-06T07:04:05.068Z,411.00
2023-03-06T07:05:05.720Z,422.00
2023-03-06T07:06:05.000Z,423.00
2023-03-06T07:07:04.965Z,419.00
2023-03-06T07:08:05.002Z,384.00
2023-03-06T07:09:04.955Z,354.00
2023-03-06T07:10:04.957Z,354.00
2023-03-06T07:11:04.970Z,380.00
2023-03-06T07:12:04.913Z,388.00
2023-03-06T07:13:04.881Z,381.00
2023-03-06T07:14:04.945Z,371.00
2023-03-06T07:15:04.887Z,375.00
2023-03-06T07:16:04.933Z,385.00
2023-03-06T07:17:04.971Z,397.00
2023-03-06T07:18:04.846Z,417.00
2023-03-06T07:19:04.820Z,427.00
2023-03-06T07:20:04.828Z,454.00
2023-03-06T07:21:04.772Z,453.00
2023-03-06T07:22:04.808Z,431.00
2023-03-06T07:23:04.899Z,452.00
2023-03-06T07:24:04.753Z,456.00
2023-03-06T07:25:04.771Z,444.00
2023-03-06T07:26:04.711Z,417.00
2023-03-06T07:27:04.754Z,389.00
2023-03-06T07:28:04.739Z,399.00
2023-03-06T07:29:04.738Z,426.00
2023-03-06T07:30:04.681Z,461.00
2023-03-06T07:31:04.737Z,526.00
2023-03-06T07:32:04.711Z,599.00
2023-03-06T07:33:04.681Z,598.00
2023-03-06T07:34:05.173Z,623.00
2023-03-06T07:35:22.009Z,659.00
2023-03-06T07:36:05.608Z,755.00
2023-03-06T07:37:04.599Z,836.00
2023-03-06T07:38:04.589Z,895.00
2023-03-06T07:39:04.619Z,903.00
2023-03-06T07:40:04.574Z,922.00
2023-03-06T07:41:04.659Z,942.00
2023-03-06T07:42:04.553Z,1040.00
2023-03-06T07:43:18.321Z,1129.00
2023-03-06T07:44:05.505Z,1258.00
2023-03-06T07:45:04.526Z,1353.00
2023-03-06T07:46:04.555Z,1399.00
2023-03-06T07:47:04.558Z,1439.00
2023-03-06T07:48:05.629Z,1412.00
2023-03-06T07:49:04.444Z,1405.00
2023-03-06T07:50:04.433Z,1411.00
2023-03-06T07:51:04.417Z,1394.00
2023-03-06T07:52:05.111Z,1520.00
2023-03-06T07:53:04.447Z,1635.00
2023-03-06T07:54:04.355Z,1733.00
2023-03-06T07:55:04.368Z,1881.00
2023-03-06T07:56:04.347Z,2034.00
2023-03-06T07:57:04.380Z,2221.00
2023-03-06T07:58:04.327Z,2358.00
2023-03-06T07:59:04.355Z,2446.00
2023-03-06T08:00:04.289Z,2406.00
2023-03-06T08:01:04.290Z,2373.00
2023-03-06T08:02:04.266Z,2326.00
2023-03-06T08:03:04.302Z,2512.00
2023-03-06T08:04:04.312Z,2690.00
2023-03-06T08:05:04.308Z,2876.00
2023-03-06T08:06:04.236Z,2816.00
2023-03-06T08:07:04.245Z,2592.00
2023-03-06T08:08:04.173Z,2546.00
2023-03-06T08:09:04.185Z,2819.00
2023-03-06T08:10:04.197Z,3260.00
2023-03-06T08:11:04.315Z,3437.00
2023-03-06T08:12:04.130Z,3511.00
2023-03-06T08:13:04.129Z,3731.00
2023-03-06T08:14:04.175Z,3882.00
2023-03-06T08:15:04.123Z,4121.00
2023-03-06T08:16:04.139Z,4276.00
2023-03-06T08:17:04.148Z,4474.00
2023-03-06T08:18:04.045Z,4550.00
2023-03-06T08:19:04.089Z,4591.00
2023-03-06T08:20:04.015Z,4585.00
2023-03-06T08:21:04.030Z,4606.00
2023-03-06T08:22:04.005Z,4647.00
2023-03-06T08:23:04.024Z,4643.00
2023-03-06T08:24:03.991Z,4549.00
2023-03-06T08:25:04.002Z,4386.00
2023-03-06T08:26:03.944Z,4285.00
2023-03-06T08:27:03.990Z,4206.00
2023-03-06T08:28:03.909Z,4235.00
2023-03-06T08:29:03.977Z,4349.00
2023-03-06T08:30:03.930Z,4524.00
2023-03-06T08:31:03.892Z,4614.00
2023-03-06T08:32:03.946Z,4690.00
2023-03-06T08:33:03.908Z,4717.00
2023-03-06T08:34:03.846Z,4720.00
2023-03-06T08:35:03.899Z,4752.00
2023-03-06T08:36:03.849Z,4814.00
2023-03-06T08:37:03.855Z,4844.00
2023-03-06T08:38:03.842Z,4879.00
2023-03-06T08:39:03.793Z,5003.00
2023-03-06T08:40:03.795Z,5302.00
2023-03-06T08:41:03.834Z,5736.00
2023-03-06T08:42:03.727Z,6101.00
2023-03-06T08:43:03.741Z,6274.00
2023-03-06T08:44:03.725Z,5994.00
2023-03-06T08:45:03.738Z,5669.00
2023-03-06T08:46:03.744Z,5612.00
2023-03-06T08:47:03.737Z,5807.00
2023-03-06T08:48:03.670Z,5900.00
2023-03-06T08:49:03.683Z,5739.00
2023-03-06T08:50:03.644Z,5351.00
2023-03-06T08:51:03.638Z,4715.00
2023-03-06T08:52:03.622Z,4262.00
2023-03-06T08:53:03.651Z,4132.00
2023-03-06T08:54:03.578Z,4260.00
2023-03-06T08:55:03.681Z,4590.00
2023-03-06T08:56:03.526Z,5054.00
2023-03-06T08:57:03.562Z,5458.00
2023-03-06T08:58:03.554Z,5684.00
2023-03-06T08:59:03.592Z,5802.00
2023-03-06T09:00:03.477Z,5789.00
2023-03-06T09:01:03.596Z,5861.00
2023-03-06T09:02:03.520Z,5943.00
2023-03-06T09:03:03.486Z,6059.00
2023-03-06T09:04:03.463Z,6313.00
2023-03-06T09:05:03.612Z,6701.00
2023-03-06T09:06:03.419Z,6800.00
2023-03-06T09:07:03.444Z,6433.00
2023-03-06T09:08:03.415Z,6187.00
2023-03-06T09:09:03.402Z,6387.00
2023-03-06T09:10:03.384Z,7005.00
2023-03-06T09:11:03.415Z,7844.00
2023-03-06T09:12:03.355Z,8518.00
2023-03-06T09:13:03.377Z,8685.00
2023-03-06T09:14:03.308Z,8473.00
2023-03-06T09:15:03.320Z,8143.00
2023-03-06T09:16:03.316Z,7704.00
2023-03-06T09:17:03.374Z,7477.00
2023-03-06T09:18:03.281Z,7363.00
2023-03-06T09:19:03.297Z,7314.00
2023-03-06T09:20:03.227Z,7406.00
2023-03-06T09:21:03.223Z,7176.00
2023-03-06T09:22:03.236Z,7050.00
2023-03-06T09:23:03.327Z,7228.00
2023-03-06T09:24:03.202Z,6630.00
2023-03-06T09:25:03.224Z,6569.00
2023-03-06T09:26:03.155Z,6617.00
2023-03-06T09:27:03.185Z,6597.00
2023-03-06T09:28:11.290Z,6594.00
2023-03-06T09:29:04.200Z,7405.00
2023-03-06T09:30:03.126Z,7299.00
2023-03-06T09:31:03.197Z,7042.00
2023-03-06T09:32:03.147Z,6243.00
2023-03-06T09:33:03.117Z,6459.00
2023-03-06T09:34:03.039Z,7150.00
2023-03-06T09:35:03.131Z,7690.00
2023-03-06T09:36:03.008Z,7782.00
2023-03-06T09:37:03.023Z,7804.00
2023-03-06T09:38:03.023Z,7821.00
2023-03-06T09:39:03.002Z,7221.00
2023-03-06T09:40:03.047Z,7090.00
2023-03-06T09:41:03.127Z,7576.00
2023-03-06T09:42:02.931Z,7766.00
2023-03-06T09:43:02.969Z,7504.00
2023-03-06T09:44:02.903Z,7716.00
2023-03-06T09:45:02.929Z,8130.00
2023-03-06T09:46:02.918Z,8542.00
2023-03-06T09:47:02.977Z,8500.00
2023-03-06T09:48:02.866Z,8526.00
2023-03-06T09:49:02.865Z,8546.00
2023-03-06T09:50:02.853Z,8387.00
2023-03-06T09:51:02.852Z,8663.00
2023-03-06T09:52:02.829Z,8817.00
2023-03-06T09:53:02.897Z,8583.00
2023-03-06T09:54:02.777Z,7278.00
2023-03-06T09:55:02.810Z,7911.00
2023-03-06T09:56:02.768Z,7191.00
2023-03-06T09:57:02.775Z,7696.00
2023-03-06T09:58:02.772Z,6540.00
2023-03-06T09:59:02.766Z,6279.00
2023-03-06T10:00:04.378Z,6290.00
2023-03-06T10:01:02.764Z,6980.00
2023-03-06T10:02:02.728Z,8364.00
2023-03-06T10:03:02.926Z,8398.00
2023-03-06T10:04:02.666Z,8384.00
2023-03-06T10:05:02.746Z,8069.00
2023-03-06T10:06:02.883Z,7981.00
2023-03-06T10:07:02.660Z,7745.00
2023-03-06T10:08:02.594Z,7158.00
2023-03-06T10:09:02.602Z,6635.00
2023-03-06T10:10:02.603Z,5991.00
2023-03-06T10:11:02.611Z,5234.00
2023-03-06T10:12:02.571Z,5021.00
2023-03-06T10:13:02.582Z,5308.00
2023-03-06T10:14:02.531Z,5751.00
2023-03-06T10:15:02.563Z,7106.00
2023-03-06T10:16:02.512Z,7308.00
2023-03-06T10:17:02.614Z,7765.00
2023-03-06T10:18:02.478Z,7676.00
2023-03-06T10:19:02.515Z,7713.00
2023-03-06T10:20:02.477Z,7702.00
2023-03-06T10:21:13.602Z,7280.00
2023-03-06T10:22:03.493Z,7875.00
2023-03-06T10:23:05.125Z,7960.00
2023-03-06T10:24:02.390Z,7927.00
2023-03-06T10:25:02.431Z,7883.00
2023-03-06T10:26:02.444Z,7969.00
2023-03-06T10:27:02.407Z,7411.00
2023-03-06T10:28:02.458Z,8060.00
2023-03-06T10:29:02.346Z,8069.00
2023-03-06T10:30:04.052Z,7829.00
2023-03-06T10:31:02.430Z,9109.00
2023-03-06T10:32:02.349Z,9618.00
2023-03-06T10:33:02.345Z,9832.00
2023-03-06T10:34:02.375Z,9577.00
2023-03-06T10:35:02.286Z,9825.00
2023-03-06T10:36:02.313Z,10836.00
2023-03-06T10:37:02.256Z,10126.00
2023-03-06T10:38:02.219Z,10766.00
2023-03-06T10:39:02.219Z,10159.00
2023-03-06T10:40:02.352Z,8994.00
2023-03-06T10:41:02.245Z,8370.00
2023-03-06T10:42:02.151Z,9394.00
2023-03-06T10:43:11.392Z,10424.00
2023-03-06T10:44:03.143Z,10405.00
2023-03-06T10:45:02.868Z,10140.00
2023-03-06T10:46:02.180Z,10159.00
2023-03-06T10:47:02.111Z,10287.00
2023-03-06T10:48:02.088Z,9924.00
2023-03-06T10:49:02.107Z,8569.00
2023-03-06T10:50:02.042Z,8800.00
2023-03-06T10:51:09.782Z,10119.00
2023-03-06T10:52:03.111Z,9581.00
2023-03-06T10:53:02.073Z,9645.00
2023-03-06T10:54:01.981Z,9404.00
2023-03-06T10:55:02.069Z,9291.00
2023-03-06T10:56:01.982Z,10528.00
2023-03-06T10:57:02.001Z,9500.00
2023-03-06T10:58:01.988Z,9844.00
2023-03-06T10:59:01.973Z,12571.00
2023-03-06T11:00:01.940Z,14601.00
2023-03-06T11:01:01.949Z,14287.00
2023-03-06T11:02:02.018Z,16588.00
2023-03-06T11:03:01.921Z,16296.00
2023-03-06T11:04:01.972Z,15426.00
2023-03-06T11:05:01.952Z,13733.00
2023-03-06T11:06:01.857Z,13118.00
2023-03-06T11:07:01.871Z,13100.00
2023-03-06T11:08:01.820Z,17684.00
2023-03-06T11:09:01.828Z,18592.00
2023-03-06T11:10:01.907Z,17488.00
2023-03-06T11:11:01.805Z,24866.00
2023-03-06T11:12:01.773Z,30989.00
2023-03-06T11:13:01.795Z,19498.00
2023-03-06T11:14:01.716Z,12490.00
2023-03-06T11:15:01.787Z,11443.00
2023-03-06T11:16:01.893Z,10864.00
2023-03-06T11:17:01.697Z,10380.00
2023-03-06T11:18:01.715Z,9695.00
2023-03-06T11:19:01.691Z,8790.00
2023-03-06T11:20:01.665Z,9048.00
2023-03-06T11:21:01.693Z,8635.00
2023-03-06T11:22:01.690Z,8775.00
2023-03-06T11:23:01.630Z,8750.00
2023-03-06T11:24:01.616Z,11901.00
2023-03-06T11:25:01.686Z,9776.00
2023-03-06T11:26:01.560Z,9388.00
2023-03-06T11:27:01.610Z,12112.00
2023-03-06T11:28:01.577Z,12616.00
2023-03-06T11:29:01.640Z,13323.00
2023-03-06T11:30:01.538Z,14182.00
2023-03-06T11:31:01.577Z,14031.00
2023-03-06T11:32:01.582Z,14171.00
2023-03-06T11:33:01.529Z,15122.00
2023-03-06T11:34:01.477Z,16091.00
2023-03-06T11:35:01.600Z,16989.00
2023-03-06T11:36:01.431Z,17335.00
2023-03-06T11:37:01.463Z,15095.00
2023-03-06T11:38:01.446Z,12990.00
2023-03-06T11:39:01.418Z,13060.00
2023-03-06T11:40:01.443Z,13993.00
2023-03-06T11:41:01.351Z,14259.00
2023-03-06T11:42:01.404Z,14253.00
2023-03-06T11:43:01.342Z,14454.00
2023-03-06T11:44:01.387Z,14769.00
2023-03-06T11:45:02.903Z,14692.00
2023-03-06T11:46:01.446Z,14357.00
2023-03-06T11:47:01.325Z,14103.00
2023-03-06T11:48:01.291Z,13855.00
2023-03-06T11:49:01.260Z,13643.00
2023-03-06T11:50:01.307Z,13365.00
2023-03-06T11:51:01.237Z,13288.00
2023-03-06T11:52:01.310Z,13413.00
2023-03-06T11:53:01.231Z,14192.00
2023-03-06T11:54:01.223Z,14606.00
2023-03-06T11:55:01.264Z,14606.00
2023-03-06T11:56:01.244Z,14049.00
2023-03-06T11:57:01.165Z,12539.00
2023-03-06T11:58:01.199Z,11252.00
2023-03-06T11:59:01.165Z,10322.00
2023-03-06T12:00:01.170Z,9520.00
2023-03-06T12:01:01.093Z,9016.00
2023-03-06T12:02:01.250Z,8796.00
2023-03-06T12:03:01.061Z,8708.00
2023-03-06T12:04:01.143Z,8695.00
2023-03-06T12:05:01.209Z,8721.00
2023-03-06T12:06:01.072Z,8858.00
2023-03-06T12:07:01.051Z,9305.00
2023-03-06T12:08:01.040Z,9461.00
2023-03-06T12:09:01.013Z,9153.00
2023-03-06T12:10:01.090Z,8882.00
2023-03-06T12:11:00.992Z,8922.00
2023-03-06T12:12:00.996Z,8814.00
2023-03-06T12:13:00.929Z,8752.00
2023-03-06T12:14:03.575Z,8558.00
2023-03-06T12:15:01.011Z,8557.00
2023-03-06T12:16:01.090Z,8550.00
2023-03-06T12:17:00.900Z,8462.00
2023-03-06T12:18:00.888Z,8275.00
2023-03-06T12:19:00.871Z,8194.00
2023-03-06T12:20:00.914Z,8276.00
2023-03-06T12:21:00.848Z,8315.00
2023-03-06T12:22:00.942Z,8343.00
2023-03-06T12:23:14.584Z,8347.00
2023-03-06T12:24:01.855Z,8059.00
2023-03-06T12:25:00.836Z,7918.00
2023-03-06T12:26:00.802Z,7847.00
2023-03-06T12:27:00.774Z,7357.00
2023-03-06T12:28:00.914Z,7172.00
2023-03-06T12:29:00.757Z,7022.00
2023-03-06T12:30:00.759Z,6966.00
2023-03-06T12:31:00.727Z,7045.00
2023-03-06T12:32:00.835Z,7241.00
2023-03-06T12:33:00.698Z,7486.00
2023-03-06T12:34:00.762Z,7705.00
2023-03-06T12:35:00.712Z,7825.00
2023-03-06T12:36:00.723Z,8025.00
2023-03-06T12:37:00.656Z,8261.00
2023-03-06T12:38:00.628Z,8362.00
2023-03-06T12:39:00.734Z,8585.00